createdAt,value
2022-12-03T00:01:19.781Z,2.79
2022-12-03T00:06:19.864Z,2.60
2022-12-03T00:11:19.879Z,2.80
2022-12-03T00:16:20.124Z,2.74
2022-12-03T00:21:19.874Z,2.82
2022-12-03T00:26:19.807Z,2.91
2022-12-03T00:31:19.905Z,3.06
2022-12-03T00:36:19.780Z,2.68
2022-12-03T00:41:20.070Z,2.52
2022-12-03T00:46:21.614Z,2.67
2022-12-03T00:51:20.066Z,2.88
2022-12-03T00:56:19.889Z,3.10
2022-12-03T01:01:20.136Z,2.95
2022-12-03T01:06:19.830Z,2.76
2022-12-03T01:11:19.811Z,2.86
2022-12-03T01:16:19.929Z,2.93
2022-12-03T01:21:19.768Z,2.85
2022-12-03T01:26:20.110Z,2.68
2022-12-03T01:31:19.888Z,2.84
2022-12-03T01:36:20.102Z,2.88
2022-12-03T01:41:19.866Z,2.92
2022-12-03T01:46:19.917Z,3.02
2022-12-03T01:51:19.882Z,2.85
2022-12-03T01:56:19.773Z,2.88
2022-12-03T02:01:19.881Z,3.01
2022-12-03T02:06:19.824Z,3.03
2022-12-03T02:11:19.829Z,3.06
2022-12-03T02:21:19.821Z,3.10
2022-12-03T02:26:19.939Z,2.92
2022-12-03T02:31:20.156Z,2.93
2022-12-03T02:36:20.157Z,2.92
2022-12-03T02:41:20.072Z,2.99
2022-12-03T02:46:19.881Z,2.85
2022-12-03T02:51:20.013Z,2.96
2022-12-03T02:56:20.149Z,3.03
2022-12-03T03:01:20.062Z,3.00
2022-12-03T03:06:19.857Z,2.88
2022-12-03T03:16:19.901Z,2.72
2022-12-03T03:21:19.802Z,2.67
2022-12-03T03:26:20.067Z,2.64
2022-12-03T03:31:19.860Z,2.90
2022-12-03T03:36:20.049Z,2.75
2022-12-03T03:41:20.175Z,2.92
2022-12-03T03:46:19.889Z,2.78
2022-12-03T03:56:19.859Z,2.90
2022-12-03T04:06:19.950Z,2.98
2022-12-03T04:11:20.091Z,2.84
2022-12-03T04:16:19.983Z,2.72
2022-12-03T04:21:19.884Z,2.92
2022-12-03T04:26:19.840Z,2.88
2022-12-03T04:31:20.162Z,2.98
2022-12-03T04:36:20.165Z,2.84
2022-12-03T04:41:19.835Z,2.93
2022-12-03T04:46:19.938Z,2.99
2022-12-03T04:51:19.877Z,2.96
2022-12-03T04:56:19.909Z,3.01
2022-12-03T05:01:19.949Z,2.85
2022-12-03T05:06:19.843Z,2.83
2022-12-03T05:16:20.416Z,2.87
2022-12-03T05:21:20.171Z,2.80
2022-12-03T05:26:19.931Z,2.90
2022-12-03T05:31:20.025Z,2.89
2022-12-03T05:36:20.010Z,2.88
2022-12-03T05:41:20.132Z,2.95
2022-12-03T05:46:19.998Z,3.00
2022-12-03T05:56:19.908Z,3.01
2022-12-03T06:01:20.053Z,2.80
2022-12-03T06:06:19.949Z,2.72
2022-12-03T06:11:20.041Z,2.86
2022-12-03T06:16:20.226Z,2.85
2022-12-03T06:21:19.881Z,2.93
2022-12-03T06:26:19.923Z,2.85
2022-12-03T06:31:20.082Z,2.99
2022-12-03T06:36:23.209Z,2.92
2022-12-03T06:41:19.907Z,3.09
2022-12-03T06:46:19.999Z,2.81
2022-12-03T06:51:20.286Z,2.90
2022-12-03T06:56:22.287Z,2.91
2022-12-03T07:01:19.959Z,2.96
2022-12-03T07:06:19.928Z,3.05
2022-12-03T07:11:19.944Z,3.00
2022-12-03T07:16:20.052Z,3.09
2022-12-03T07:21:19.963Z,2.95
2022-12-03T07:26:19.957Z,3.09
2022-12-03T07:31:19.999Z,3.14
2022-12-03T07:36:19.925Z,3.24
2022-12-03T07:41:19.889Z,3.31
2022-12-03T07:46:20.637Z,3.25
2022-12-03T07:51:20.016Z,3.23
2022-12-03T07:56:19.921Z,3.33
2022-12-03T08:01:20.059Z,3.43
2022-12-03T08:06:19.905Z,3.62
2022-12-03T08:11:20.028Z,3.53
2022-12-03T08:16:20.095Z,3.50
2022-12-03T08:21:20.326Z,3.59
2022-12-03T08:26:20.080Z,3.69
2022-12-03T08:31:20.393Z,3.74
2022-12-03T08:36:20.052Z,3.60
2022-12-03T08:46:20.149Z,3.86
2022-12-03T08:51:19.936Z,3.95
2022-12-03T08:56:20.018Z,3.81
2022-12-03T09:01:20.026Z,3.99
2022-12-03T09:06:20.302Z,4.39
2022-12-03T09:11:20.116Z,4.52
2022-12-03T09:16:20.330Z,4.72
2022-12-03T09:21:19.934Z,4.80
2022-12-03T09:26:20.233Z,4.75
2022-12-03T09:36:20.453Z,4.99
2022-12-03T09:41:19.993Z,4.93
2022-12-03T09:46:20.349Z,4.66
2022-12-03T09:51:20.850Z,4.80
2022-12-03T09:56:19.999Z,4.59
2022-12-03T10:01:20.039Z,4.73
2022-12-03T10:06:19.999Z,4.92
2022-12-03T10:11:19.989Z,5.14
2022-12-03T10:16:20.084Z,5.36
2022-12-03T10:21:20.223Z,5.28
2022-12-03T10:26:20.006Z,5.54
2022-12-03T10:31:20.225Z,5.90
2022-12-03T10:36:19.999Z,5.99
2022-12-03T10:41:20.020Z,6.34
2022-12-03T10:46:20.169Z,6.15
2022-12-03T10:51:20.129Z,5.98
2022-12-03T10:56:20.022Z,5.99
2022-12-03T11:01:20.206Z,6.09
2022-12-03T11:06:20.240Z,6.14
2022-12-03T11:11:19.985Z,6.15
2022-12-03T11:16:20.153Z,6.12
2022-12-03T11:21:20.421Z,6.25
2022-12-03T11:26:20.183Z,6.45
2022-12-03T11:31:20.068Z,6.48
2022-12-03T11:36:36.414Z,6.70
2022-12-03T11:41:20.030Z,6.92
2022-12-03T11:46:20.155Z,6.79
2022-12-03T11:51:20.032Z,7.02
2022-12-03T11:56:20.094Z,7.01
2022-12-03T12:01:19.998Z,6.83
2022-12-03T12:06:20.064Z,6.72
2022-12-03T12:11:20.059Z,6.91
2022-12-03T12:16:20.092Z,6.94
2022-12-03T12:21:20.178Z,6.91
2022-12-03T12:26:20.289Z,6.97
2022-12-03T12:31:20.051Z,7.05
2022-12-03T12:36:20.059Z,7.15
2022-12-03T12:41:20.010Z,7.04
2022-12-03T12:46:46.791Z,6.98
2022-12-03T12:51:20.070Z,6.92
2022-12-03T12:56:20.196Z,6.94
2022-12-03T13:01:20.120Z,6.87
2022-12-03T13:06:20.196Z,6.83
2022-12-03T13:11:20.028Z,6.62
2022-12-03T13:16:20.259Z,6.61
2022-12-03T13:26:34.125Z,6.54
2022-12-03T13:31:20.310Z,6.57
2022-12-03T13:36:20.413Z,6.55
2022-12-03T13:41:20.218Z,6.52
2022-12-03T13:46:20.139Z,6.55
2022-12-03T13:51:20.219Z,6.54
2022-12-03T13:56:20.360Z,6.50
2022-12-03T14:01:20.235Z,6.56
2022-12-03T14:06:20.326Z,6.44
2022-12-03T14:11:20.076Z,6.46
2022-12-03T14:16:20.310Z,6.54
2022-12-03T14:21:20.105Z,6.50
2022-12-03T14:26:20.264Z,6.47
2022-12-03T14:31:20.476Z,6.46
2022-12-03T14:36:20.081Z,6.49
2022-12-03T14:41:20.377Z,6.45
2022-12-03T14:46:20.163Z,6.33
2022-12-03T14:51:20.359Z,6.31
2022-12-03T14:56:20.176Z,6.34
2022-12-03T15:01:20.161Z,6.41
2022-12-03T15:06:20.104Z,6.29
2022-12-03T15:11:20.102Z,6.40
2022-12-03T15:16:20.161Z,6.32
2022-12-03T15:21:20.118Z,6.19
2022-12-03T15:26:20.111Z,6.15
2022-12-03T15:31:20.499Z,6.11
2022-12-03T15:36:20.378Z,6.17
2022-12-03T15:41:20.367Z,6.11
2022-12-03T15:46:20.260Z,6.20
2022-12-03T15:51:20.159Z,6.13
2022-12-03T15:56:20.317Z,5.98
2022-12-03T16:01:20.738Z,5.90
2022-12-03T16:06:20.478Z,5.85
2022-12-03T16:16:20.324Z,5.82
2022-12-03T16:21:26.251Z,5.74
2022-12-03T16:26:20.202Z,5.70
2022-12-03T16:31:20.405Z,5.56
2022-12-03T16:36:20.151Z,5.45
2022-12-03T16:41:20.323Z,5.40
2022-12-03T16:46:20.820Z,5.29
2022-12-03T16:51:20.309Z,5.30
2022-12-03T16:56:20.153Z,5.23
2022-12-03T17:01:20.311Z,5.03
2022-12-03T17:06:20.141Z,5.06
2022-12-03T17:11:20.399Z,5.02
2022-12-03T17:16:20.246Z,4.96
2022-12-03T17:21:20.212Z,5.03
2022-12-03T17:26:20.517Z,4.86
2022-12-03T17:31:20.808Z,4.85
2022-12-03T17:41:20.177Z,4.88
2022-12-03T17:46:20.225Z,4.97
2022-12-03T17:51:20.172Z,4.83
2022-12-03T17:56:20.175Z,4.58
2022-12-03T18:01:20.161Z,4.72
2022-12-03T18:06:20.304Z,4.68
2022-12-03T18:11:20.614Z,4.53
2022-12-03T18:16:20.534Z,4.59
2022-12-03T18:21:20.194Z,4.55
2022-12-03T18:26:20.601Z,4.49
2022-12-03T18:31:20.355Z,4.42
2022-12-03T18:36:20.688Z,4.31
2022-12-03T18:41:20.241Z,4.35
2022-12-03T18:51:20.655Z,4.24
2022-12-03T18:56:20.344Z,4.05
2022-12-03T19:01:20.456Z,4.09
2022-12-03T19:06:20.633Z,4.26
2022-12-03T19:11:20.400Z,4.06
2022-12-03T19:16:20.582Z,3.98
2022-12-03T19:21:20.549Z,4.11
2022-12-03T19:26:20.524Z,4.00
2022-12-03T19:31:20.453Z,4.14
2022-12-03T19:41:20.638Z,3.97
2022-12-03T19:46:20.390Z,4.10
2022-12-03T19:51:33.432Z,4.18
2022-12-03T19:56:21.751Z,4.12
2022-12-03T20:01:20.651Z,4.23
2022-12-03T20:06:20.439Z,4.10
2022-12-03T20:11:20.485Z,4.19
2022-12-03T20:16:20.327Z,4.04
2022-12-03T20:21:21.178Z,4.08
2022-12-03T20:26:20.679Z,3.99
2022-12-03T20:31:20.924Z,3.95
2022-12-03T20:36:21.669Z,3.91
2022-12-03T20:41:20.513Z,3.87
2022-12-03T20:46:22.019Z,3.89
2022-12-03T20:51:20.793Z,3.94
2022-12-03T20:56:20.494Z,4.01
2022-12-03T21:01:20.574Z,3.90
2022-12-03T21:06:20.409Z,3.96
2022-12-03T21:11:20.682Z,3.89
2022-12-03T21:16:34.179Z,3.72
2022-12-03T21:21:20.374Z,3.68
2022-12-03T21:26:20.538Z,3.56
2022-12-03T21:31:20.956Z,3.70
2022-12-03T21:36:20.528Z,3.86
2022-12-03T21:41:20.454Z,3.97
2022-12-03T21:47:10.311Z,3.99
2022-12-03T21:51:20.584Z,3.98
2022-12-03T21:56:20.266Z,4.09
2022-12-03T22:01:20.446Z,4.12
2022-12-03T22:06:20.459Z,4.10
2022-12-03T22:11:20.576Z,4.09
2022-12-03T22:16:20.432Z,4.11
2022-12-03T22:21:20.547Z,4.07
2022-12-03T22:26:20.756Z,4.05
2022-12-03T22:31:20.338Z,4.23
2022-12-03T22:36:21.799Z,4.19
2022-12-03T22:41:20.313Z,4.32
2022-12-03T22:46:20.372Z,4.40
2022-12-03T22:51:20.289Z,4.38
2022-12-03T22:56:20.575Z,4.34
2022-12-03T23:01:20.286Z,4.40
2022-12-03T23:06:20.542Z,4.38
2022-12-03T23:11:20.282Z,4.41
2022-12-03T23:16:20.600Z,4.44
2022-12-03T23:21:23.994Z,4.53
2022-12-03T23:26:20.272Z,4.39
2022-12-03T23:31:20.481Z,4.18
2022-12-03T23:36:20.476Z,4.17
2022-12-03T23:41:20.643Z,3.78
2022-12-03T23:46:20.510Z,3.95
2022-12-03T23:51:20.581Z,3.84
2022-12-03T23:56:20.399Z,3.54
